Portada
METAR-TAF:

METAR-TAF

Aeroports :

Aeroport de Barcelona-El Prat

Barcelona, Espanya

latitud: 41-17N, longitud: 002-04E, altitud: 4 m

Observació

L'informe es va fer fa 30 minuts, a les 05:30 UTC
Vent 12 kt del Nord/Nord-Oest, variant entre Oest/Nord-Oest i Nord
Temperatura 15°C
Humitat 77%
Pressió 1015 hPa
Visibilitat 10 km o més
Escasses núvols a una alçada de 1800 ft

METAR: LEBL 210530Z 33012KT 290V360 9999 FEW018 15/11 Q1015 NOSIG

Hora: 08:00 (06:00 UTC)

Pronòstic

L'informe es va fer fa 1 hora i 0 minuts, a les 05:00 UTC
Pronòstic vàlid del 21 a les 06 UTC al 22 a les 06 UTC
Vent 9 kt del Nord/Nord-Oest
Visibilitat 10 km o més
Escasses núvols a una alçada de 2000 ft
Probabilitat 40% :
Temporalment
l' 21 a les 12 UTC al 22 a les 06 UTC
Escasses núvols a una alçada de 2000 ft, Cumulus congestus.
Cel ennuvolat a una alçada de 5000 ft
xàfecs de pluja

TAF: LEBL 210500Z 2106/2206 34009KT 9999 FEW020 TX20/2112Z TN16/2106Z PROB40 TEMPO 2112/2206 SHRA FEW020TCU BKN050

Observacions i pronòstics meteorològics de més de 4000 aeroports (METAR i TAF).

Les estacions disponibles són els punts grocs i vermells al mapa.

Posi el ratolí al punt desitjat per veure el nom de l'estació.

Feu clic per veure les observacions i els pronòstics meteorològics.

Per canviar el mapa: feu clic els botons verds amb una creu de color negre per apropar; al botó verd amb un guió per allunyar la imatge; o en les fletxes verdes per a mapes adjacents.


METAR-TAF: